Time;durP1;ratioP1;P1;durP2;ratioP2;P2;SDS_P1;SDS_P2;PMS_P1;PMS_P2;Temp;Humidity;BMP_temperature;BMP_pressure;BME280_temperature;BME280_humidity;BME280_pressure;Samples;Min_cycle;Max_cycle;Signal;HPM_P1;HPM_P2
2023/04/21 00:00:55;;;;;;;28.35;16.42;;;;;;;;;;4867836;29;20043;-92
2023/04/21 00:03:22;;;;;;;25.17;14.02;;;;;;;;;;4868066;29;20048;-91
2023/04/21 00:05:49;;;;;;;27.42;14.70;;;;;;;;;;4868113;29;20053;-93
2023/04/21 00:08:16;;;;;;;22.60;14.05;;;;;;;;;;4883387;29;20088;-93
2023/04/21 00:10:42;;;;;;;25.63;13.98;;;;;;;;;;4868443;29;20076;-95
2023/04/21 00:13:09;;;;;;;24.85;14.95;;;;;;;;;;4868515;29;20091;-93
2023/04/21 00:15:35;;;;;;;24.25;13.90;;;;;;;;;;4867844;29;20059;-92
2023/04/21 00:18:36;;;;;;;22.33;12.77;;;;;;;;;;4868000;29;20606;-92
2023/04/21 00:21:02;;;;;;;25.55;14.45;;;;;;;;;;4882263;29;20092;-92
2023/04/21 00:23:28;;;;;;;26.92;13.13;;;;;;;;;;4867575;29;20446;-93
2023/04/21 00:25:54;;;;;;;25.33;14.43;;;;;;;;;;4867262;29;20048;-92
2023/04/21 00:28:20;;;;;;;19.50;13.60;;;;;;;;;;4867180;29;20048;-92
2023/04/21 00:30:46;;;;;;;16.55;12.45;;;;;;;;;;4867915;29;20456;-93
2023/04/21 00:33:13;;;;;;;24.30;13.70;;;;;;;;;;4867971;29;20056;-93
2023/04/21 00:35:39;;;;;;;21.17;14.18;;;;;;;;;;4867980;29;20037;-93
2023/04/21 00:38:05;;;;;;;19.55;13.18;;;;;;;;;;4867618;29;20055;-93
2023/04/21 00:40:32;;;;;;;20.85;12.68;;;;;;;;;;4867848;29;20044;-94
2023/04/21 00:42:58;;;;;;;20.33;13.48;;;;;;;;;;4867325;29;20205;-94
2023/04/21 00:45:24;;;;;;;18.98;12.07;;;;;;;;;;4867197;29;20405;-92
2023/04/21 00:47:51;;;;;;;24.45;13.63;;;;;;;;;;4866941;29;20051;-93
2023/04/21 00:50:17;;;;;;;20.10;14.18;;;;;;;;;;4882739;29;20529;-92
2023/04/21 00:52:45;;;;;;;20.65;14.15;;;;;;;;;;4867266;29;20116;-92
2023/04/21 00:55:12;;;;;;;23.13;13.65;;;;;;;;;;4866208;29;20184;-94
2023/04/21 00:57:38;;;;;;;26.52;13.82;;;;;;;;;;4866982;29;20052;-92
2023/04/21 01:00:05;;;;;;;21.75;13.63;;;;;;;;;;4882654;29;20047;-92
2023/04/21 01:02:34;;;;;;;23.00;14.07;;;;;;;;;;4882310;29;20180;-93
2023/04/21 01:05:01;;;;;;;22.02;14.98;;;;;;;;;;4866940;29;20131;-92
2023/04/21 01:07:27;;;;;;;27.95;15.00;;;;;;;;;;4867131;29;20056;-94
2023/04/21 01:09:54;;;;;;;23.17;13.75;;;;;;;;;;4866868;29;20056;-93
2023/04/21 01:12:20;;;;;;;23.60;12.75;;;;;;;;;;4878762;29;20055;-92
2023/04/21 01:14:57;;;;;;;22.98;13.55;;;;;;;;;;4892486;29;20681;-94
2023/04/21 01:17:24;;;;;;;23.27;14.07;;;;;;;;;;4871221;29;20044;-96
2023/04/21 01:19:51;;;;;;;23.35;15.90;;;;;;;;;;4868348;29;20450;-94
2023/04/21 01:22:17;;;;;;;21.70;13.43;;;;;;;;;;4882658;29;20438;-95
2023/04/21 01:24:47;;;;;;;20.85;13.80;;;;;;;;;;4867859;29;20066;-95
2023/04/21 01:27:17;;;;;;;23.42;14.32;;;;;;;;;;4867812;29;20056;-97
2023/04/21 01:29:45;;;;;;;19.05;14.13;;;;;;;;;;4870276;29;20049;-93
2023/04/21 01:32:13;;;;;;;23.83;15.20;;;;;;;;;;4869047;29;20056;-96
2023/04/21 01:34:42;;;;;;;23.52;13.82;;;;;;;;;;4883898;29;20060;-95
2023/04/21 01:37:08;;;;;;;25.30;14.27;;;;;;;;;;4868314;29;20091;-95
2023/04/21 01:39:37;;;;;;;27.15;13.98;;;;;;;;;;4870202;29;20051;-96
2023/04/21 01:42:03;;;;;;;21.35;14.88;;;;;;;;;;4885744;29;20078;-95
2023/04/21 01:44:29;;;;;;;23.70;14.05;;;;;;;;;;4870681;29;20497;-96
2023/04/21 01:46:55;;;;;;;23.23;14.07;;;;;;;;;;4876068;29;20048;-93
2023/04/21 01:49:22;;;;;;;25.08;15.02;;;;;;;;;;4882092;29;20161;-92
2023/04/21 01:51:48;;;;;;;24.70;14.32;;;;;;;;;;4883617;29;20049;-94
2023/04/21 01:54:14;;;;;;;25.33;13.65;;;;;;;;;;4883715;29;20052;-93
2023/04/21 01:56:40;;;;;;;27.05;14.00;;;;;;;;;;4880450;29;20044;-92
2023/04/21 01:59:06;;;;;;;24.58;13.27;;;;;;;;;;4867219;29;20052;-92
2023/04/21 02:01:32;;;;;;;22.40;15.27;;;;;;;;;;4865848;29;20055;-91
2023/04/21 02:03:58;;;;;;;22.73;14.65;;;;;;;;;;4865396;29;20052;-92
2023/04/21 02:06:25;;;;;;;25.50;14.05;;;;;;;;;;4865086;29;20053;-92
2023/04/21 02:08:51;;;;;;;25.30;15.30;;;;;;;;;;4865763;29;20048;-93
2023/04/21 02:11:17;;;;;;;22.73;14.30;;;;;;;;;;4865707;29;20056;-92
2023/04/21 02:13:43;;;;;;;24.33;14.88;;;;;;;;;;4865516;29;20056;-92
2023/04/21 02:16:09;;;;;;;20.05;13.50;;;;;;;;;;4865376;29;20060;-92
2023/04/21 02:18:38;;;;;;;24.10;14.85;;;;;;;;;;4865231;29;20048;-92
2023/04/21 02:21:06;;;;;;;19.63;13.10;;;;;;;;;;4865321;29;20095;-92
2023/04/21 02:23:35;;;;;;;20.15;15.10;;;;;;;;;;4865762;29;20131;-91
2023/04/21 02:26:06;;;;;;;23.15;14.48;;;;;;;;;;4866038;29;20176;-92
2023/04/21 02:28:33;;;;;;;31.00;15.13;;;;;;;;;;4865274;29;20049;-92
2023/04/21 02:30:59;;;;;;;20.20;13.82;;;;;;;;;;4865319;29;20044;-92
2023/04/21 02:33:25;;;;;;;21.08;15.20;;;;;;;;;;4865213;29;20052;-92
2023/04/21 02:35:51;;;;;;;23.67;13.15;;;;;;;;;;4865579;29;20051;-92
2023/04/21 02:38:17;;;;;;;25.15;14.82;;;;;;;;;;4865517;29;20172;-92
2023/04/21 02:40:43;;;;;;;20.40;14.23;;;;;;;;;;4865664;29;20432;-93
2023/04/21 02:43:10;;;;;;;25.95;15.25;;;;;;;;;;4865513;29;20049;-92
2023/04/21 02:45:36;;;;;;;26.58;15.45;;;;;;;;;;4865217;29;20502;-93
2023/04/21 02:48:02;;;;;;;22.35;15.02;;;;;;;;;;4865360;29;20088;-92
2023/04/21 02:50:28;;;;;;;23.42;14.90;;;;;;;;;;4865345;29;20052;-92
2023/04/21 02:52:55;;;;;;;22.58;14.55;;;;;;;;;;4865967;29;20040;-93
2023/04/21 02:55:21;;;;;;;25.35;15.32;;;;;;;;;;4865694;29;20057;-94
2023/04/21 02:57:47;;;;;;;23.98;15.23;;;;;;;;;;4865500;29;20048;-91
2023/04/21 03:00:14;;;;;;;24.33;15.70;;;;;;;;;;4865454;29;20502;-94
2023/04/21 03:02:40;;;;;;;29.67;15.13;;;;;;;;;;4865982;29;20067;-93
2023/04/21 03:05:09;;;;;;;23.67;14.77;;;;;;;;;;4865449;29;20408;-93
2023/04/21 03:07:35;;;;;;;27.65;15.68;;;;;;;;;;4865421;29;20052;-93
2023/04/21 03:10:02;;;;;;;26.65;15.18;;;;;;;;;;4864852;29;20136;-94
2023/04/21 03:12:28;;;;;;;23.15;15.27;;;;;;;;;;4865079;29;20041;-92
2023/04/21 03:14:54;;;;;;;23.67;16.05;;;;;;;;;;4866855;29;20450;-91
2023/04/21 03:17:25;;;;;;;23.25;16.67;;;;;;;;;;4868773;29;20052;-91
2023/04/21 03:19:51;;;;;;;28.10;15.27;;;;;;;;;;4873450;29;20104;-94
2023/04/21 03:22:18;;;;;;;24.85;16.65;;;;;;;;;;4880102;29;20064;-94
2023/04/21 03:24:44;;;;;;;22.48;14.57;;;;;;;;;;4890014;29;20060;-95
2023/04/21 03:27:10;;;;;;;24.33;15.30;;;;;;;;;;4872683;29;20090;-96
2023/04/21 03:29:36;;;;;;;24.95;15.57;;;;;;;;;;4871141;29;20053;-96
2023/04/21 03:32:03;;;;;;;22.65;15.45;;;;;;;;;;4870928;29;20055;-96
2023/04/21 03:34:29;;;;;;;28.25;16.92;;;;;;;;;;4872088;29;20048;-96
2023/04/21 03:36:55;;;;;;;21.70;14.13;;;;;;;;;;4875633;29;20079;-94
2023/04/21 03:39:21;;;;;;;22.58;15.00;;;;;;;;;;4873944;29;20045;-96
2023/04/21 03:41:47;;;;;;;22.25;14.30;;;;;;;;;;4874484;29;20050;-94
2023/04/21 03:44:13;;;;;;;22.15;15.82;;;;;;;;;;4872721;29;20412;-96
2023/04/21 03:46:39;;;;;;;20.52;14.27;;;;;;;;;;4869943;29;20486;-93
2023/04/21 03:49:05;;;;;;;28.73;15.23;;;;;;;;;;4870390;29;20045;-96
2023/04/21 03:51:31;;;;;;;23.52;13.32;;;;;;;;;;4870999;29;20048;-96
2023/04/21 03:53:58;;;;;;;21.77;13.55;;;;;;;;;;4870760;29;20049;-96
2023/04/21 03:56:24;;;;;;;21.67;14.18;;;;;;;;;;4878957;29;20107;-96
2023/04/21 03:58:53;;;;;;;19.05;11.90;;;;;;;;;;4877957;29;20056;-95
2023/04/21 04:01:20;;;;;;;18.38;11.75;;;;;;;;;;4877277;29;20048;-94
2023/04/21 04:03:46;;;;;;;29.08;14.20;;;;;;;;;;4877409;29;20045;-93
2023/04/21 04:06:13;;;;;;;18.95;12.48;;;;;;;;;;4875358;29;20048;-94
2023/04/21 04:08:39;;;;;;;30.65;13.55;;;;;;;;;;4874745;29;20131;-96
2023/04/21 04:11:05;;;;;;;26.80;13.77;;;;;;;;;;4878435;29;20055;-93
2023/04/21 04:13:33;;;;;;;18.90;12.38;;;;;;;;;;4868551;29;20049;-93
2023/04/21 04:16:00;;;;;;;21.02;13.02;;;;;;;;;;4868299;29;20053;-92
2023/04/21 04:18:26;;;;;;;17.25;12.27;;;;;;;;;;4868052;29;20048;-95
2023/04/21 04:20:52;;;;;;;22.88;12.43;;;;;;;;;;4867918;29;20139;-93
2023/04/21 04:23:18;;;;;;;21.40;12.95;;;;;;;;;;4867636;29;20053;-93
2023/04/21 04:25:46;;;;;;;19.35;13.35;;;;;;;;;;4867972;29;20049;-94
2023/04/21 04:28:14;;;;;;;23.23;12.50;;;;;;;;;;4867599;29;20080;-94
2023/04/21 04:30:40;;;;;;;23.25;12.60;;;;;;;;;;4868051;29;20048;-94
2023/04/21 04:33:07;;;;;;;20.23;13.25;;;;;;;;;;4867950;29;20044;-93
2023/04/21 04:35:34;;;;;;;19.23;12.05;;;;;;;;;;4867676;29;20076;-92
2023/04/21 04:38:01;;;;;;;17.42;12.48;;;;;;;;;;4867217;29;20049;-93
2023/04/21 04:40:29;;;;;;;20.23;11.98;;;;;;;;;;4867742;29;20100;-94
2023/04/21 04:42:55;;;;;;;18.42;11.35;;;;;;;;;;4867186;29;20055;-93
2023/04/21 04:45:22;;;;;;;20.42;11.45;;;;;;;;;;4867621;29;20052;-92
2023/04/21 04:47:49;;;;;;;20.25;12.50;;;;;;;;;;4867988;29;20581;-95
2023/04/21 04:50:15;;;;;;;21.25;11.43;;;;;;;;;;4868008;29;20078;-95
2023/04/21 04:52:45;;;;;;;18.73;11.95;;;;;;;;;;4868262;29;20049;-95
2023/04/21 04:55:11;;;;;;;18.25;12.73;;;;;;;;;;4868068;29;20075;-94
2023/04/21 04:57:38;;;;;;;18.02;11.85;;;;;;;;;;4867494;29;20108;-94
2023/04/21 05:00:06;;;;;;;22.42;14.52;;;;;;;;;;4882605;29;20045;-93
2023/04/21 05:02:32;;;;;;;18.85;12.70;;;;;;;;;;4867512;29;20056;-93
2023/04/21 05:05:01;;;;;;;18.55;12.38;;;;;;;;;;4866969;29;20045;-94
2023/04/21 05:07:28;;;;;;;19.55;10.73;;;;;;;;;;4867277;29;20044;-94
2023/04/21 05:40:13;;;;;;;17.75;11.77;;;;;;;;;;5083521;23;20467;-93
2023/04/21 05:42:39;;;;;;;17.88;10.13;;;;;;;;;;4864369;29;20137;-94
2023/04/21 05:45:08;;;;;;;23.77;12.23;;;;;;;;;;4863777;29;20099;-93
2023/04/21 05:47:34;;;;;;;21.85;10.48;;;;;;;;;;4864074;29;20052;-94
2023/04/21 05:50:00;;;;;;;23.13;10.82;;;;;;;;;;4863332;29;20056;-93
2023/04/21 05:52:29;;;;;;;16.52;11.23;;;;;;;;;;4863496;29;20049;-93
2023/04/21 05:54:55;;;;;;;18.70;10.10;;;;;;;;;;4863185;29;20513;-94
2023/04/21 05:57:24;;;;;;;18.67;11.18;;;;;;;;;;4863393;29;20134;-94
2023/04/21 05:59:53;;;;;;;23.80;9.65;;;;;;;;;;4863708;29;20048;-94
2023/04/21 06:02:22;;;;;;;21.13;10.43;;;;;;;;;;4863615;29;20044;-94
2023/04/21 06:04:52;;;;;;;14.95;9.90;;;;;;;;;;4863573;29;20132;-95
2023/04/21 06:07:18;;;;;;;17.83;9.70;;;;;;;;;;4863664;29;20158;-95
2023/04/21 06:09:49;;;;;;;15.32;8.80;;;;;;;;;;4862783;29;20045;-95
2023/04/21 06:12:15;;;;;;;16.38;10.05;;;;;;;;;;4863620;29;20077;-94
2023/04/21 06:14:41;;;;;;;16.02;10.85;;;;;;;;;;4863519;29;20064;-95
2023/04/21 06:17:12;;;;;;;13.15;9.90;;;;;;;;;;4863398;29;20045;-94
2023/04/21 06:19:38;;;;;;;16.25;9.82;;;;;;;;;;4864062;29;20136;-94
2023/04/21 06:22:07;;;;;;;18.85;10.00;;;;;;;;;;4862870;29;20108;-94
2023/04/21 06:24:36;;;;;;;19.60;9.88;;;;;;;;;;4863389;29;20053;-94
2023/04/21 06:27:03;;;;;;;18.83;10.95;;;;;;;;;;4863635;29;20640;-93
2023/04/21 06:29:29;;;;;;;14.45;8.55;;;;;;;;;;4863251;29;20510;-95
2023/04/21 06:31:55;;;;;;;17.13;10.25;;;;;;;;;;4863565;29;20053;-95
2023/04/21 06:34:23;;;;;;;15.30;10.40;;;;;;;;;;4863283;29;20084;-94
2023/04/21 06:36:52;;;;;;;19.45;11.10;;;;;;;;;;4863181;29;20518;-94
2023/04/21 06:39:22;;;;;;;15.82;10.15;;;;;;;;;;4862813;29;20060;-93
2023/04/21 06:41:51;;;;;;;13.52;9.68;;;;;;;;;;4862903;29;20052;-93
2023/04/21 06:44:20;;;;;;;21.70;11.65;;;;;;;;;;4863145;29;20052;-94
2023/04/21 06:46:49;;;;;;;22.92;9.80;;;;;;;;;;4863227;29;20042;-96
2023/04/21 06:49:16;;;;;;;18.67;10.75;;;;;;;;;;4863045;29;20511;-95
2023/04/21 06:51:42;;;;;;;17.80;9.77;;;;;;;;;;4864439;29;20041;-95
2023/04/21 06:54:08;;;;;;;17.90;10.15;;;;;;;;;;4866901;29;20045;-94
2023/04/21 06:56:34;;;;;;;17.25;10.27;;;;;;;;;;4871542;29;20065;-96
2023/04/21 06:59:02;;;;;;;18.02;9.73;;;;;;;;;;4871389;29;20410;-94
2023/04/21 07:01:38;;;;;;;14.68;9.00;;;;;;;;;;4867486;29;20113;-95
2023/04/21 07:04:05;;;;;;;15.55;9.85;;;;;;;;;;4847720;29;20053;-95
2023/04/21 07:06:42;;;;;;;39.35;9.35;;;;;;;;;;4847456;29;20048;-96
2023/04/21 07:09:08;;;;;;;19.05;9.48;;;;;;;;;;4844059;29;20615;-96
2023/04/21 07:14:18;;;;;;;20.52;9.90;;;;;;;;;;4900507;23;20061;-96
2023/04/21 07:16:44;;;;;;;13.70;9.88;;;;;;;;;;4873547;23;20080;-96
2023/04/21 12:38:54;;;;;;;12.00;5.20;;;18.70;99.90;;;;;;1292777;23;20040;-90
2023/04/21 16:02:50;;;;;;;8.10;4.30;;;19.80;99.90;;;;;;3337164;23;20349;-89
2023/04/21 16:11:25;;;;;;;8.38;4.00;;;;;;;;;;5281790;23;20250;-88
2023/04/21 16:17:18;;;;;;;8.45;5.32;;;20.00;99.90;;;;;;4891900;29;20053;-90
2023/04/21 16:19:55;;;;;;;8.88;4.47;;;20.10;99.90;;;;;;4844191;29;20052;-91
2023/04/21 16:28:33;;;;;;;11.50;4.60;;;20.20;99.90;;;;;;4868684;29;20101;-92
2023/04/21 16:31:06;;;;;;;8.13;4.30;;;20.10;99.90;;;;;;4890386;23;20068;-91
2023/04/21 16:33:39;;;;;;;6.40;4.82;;;19.70;99.90;;;;;;4861578;23;20053;-91
2023/04/21 16:36:06;;;;;;;9.10;4.72;;;;;;;;;;4868496;29;20053;-94
2023/04/21 16:38:33;;;;;;;5.10;4.18;;;;;;;;;;4884271;23;20064;-91
2023/04/21 16:41:00;;;;;;;10.70;4.18;;;;;;;;;;4859288;29;20124;-92
2023/04/21 16:43:26;;;;;;;11.70;4.80;;;;;;;;;;4859114;29;20049;-92
2023/04/21 16:45:52;;;;;;;8.82;4.38;;;;;;;;;;4858242;29;20057;-91
2023/04/21 16:48:18;;;;;;;10.82;5.15;;;;;;;;;;4845205;29;20077;-92
2023/04/21 16:50:44;;;;;;;6.70;4.35;;;;;;;;;;4859642;29;20081;-93
2023/04/21 16:53:24;;;;;;;11.68;4.85;;;19.90;99.90;;;;;;4833313;29;20044;-91
2023/04/21 16:55:50;;;;;;;8.15;4.90;;;;;;;;;;4858971;29;20052;-94
2023/04/21 16:58:19;;;;;;;14.50;5.10;;;;;;;;;;4825417;23;1297706;-93
2023/04/21 17:00:45;;;;;;;13.05;4.53;;;;;;;;;;4846320;29;20048;-94
2023/04/21 17:03:18;;;;;;;8.57;4.95;;;20.20;99.90;;;;;;4858817;29;20052;-95
2023/04/21 17:05:44;;;;;;;6.10;4.57;;;;;;;;;;4859159;29;20056;-94
2023/04/21 17:08:28;;;;;;;11.20;4.88;;;20.00;99.90;;;;;;4862037;29;20379;-93
2023/04/21 17:10:58;;;;;;;4.93;4.40;;;;;;;;;;4830894;29;20056;-93
2023/04/21 17:13:24;;;;;;;10.43;4.57;;;;;;;;;;4844600;29;20053;-93
2023/04/21 17:15:51;;;;;;;7.93;4.93;;;;;;;;;;4858646;29;20451;-94
2023/04/21 17:18:23;;;;;;;7.38;4.78;;;19.90;99.90;;;;;;4837359;29;20040;-93
2023/04/21 17:20:49;;;;;;;6.13;4.22;;;;;;;;;;4825875;29;20049;-94
2023/04/21 17:23:18;;;;;;;15.48;4.68;;;;;;;;;;4846675;23;20093;-92
2023/04/21 17:25:45;;;;;;;6.38;4.95;;;;;;;;;;4854373;29;20049;-94
2023/04/21 17:28:13;;;;;;;8.18;4.80;;;;;;;;;;4856837;29;20041;-94
2023/04/21 20:47:55;;;;;;;;;;;;;;;;;;;;;
2023/04/21 20:50:25;;;;;;;6.85;5.20;;;;;;;;;;4801529;29;20594;-91
2023/04/21 20:53:01;;;;;;;5.97;5.32;;;;;;;;;;4784260;29;20129;-88
2023/04/21 20:55:31;;;;;;;7.35;5.70;;;;;;;;;;4798562;29;20504;-88
2023/04/21 20:57:57;;;;;;;7.55;5.45;;;;;;;;;;4817304;29;20400;-93
2023/04/21 21:00:24;;;;;;;6.32;5.15;;;;;;;;;;4801989;29;20046;-89
2023/04/21 21:02:50;;;;;;;8.35;5.03;;;;;;;;;;4799620;29;20066;-89
2023/04/21 21:05:16;;;;;;;7.72;5.32;;;;;;;;;;4799111;29;20135;-93
2023/04/21 21:07:42;;;;;;;10.18;6.75;;;;;;;;;;4799623;29;20058;-86
2023/04/21 21:10:10;;;;;;;8.60;6.55;;;;;;;;;;4798692;29;20059;-89
2023/04/21 21:12:36;;;;;;;10.50;5.82;;;;;;;;;;4798849;29;20113;-86
2023/04/21 21:15:03;;;;;;;6.45;5.35;;;;;;;;;;4798992;29;20078;-93
2023/04/21 21:17:29;;;;;;;6.85;5.43;;;;;;;;;;4795318;29;20139;-91
2023/04/21 21:19:55;;;;;;;6.63;5.95;;;;;;;;;;4780754;30;20418;-94
2023/04/21 21:22:21;;;;;;;8.90;5.20;;;;;;;;;;4780069;29;20151;-95
2023/04/21 21:24:49;;;;;;;6.75;5.22;;;;;;;;;;4781013;30;20047;-88
2023/04/21 21:27:15;;;;;;;7.88;5.20;;;;;;;;;;4780389;30;20096;-86
2023/04/21 21:29:42;;;;;;;8.75;5.10;;;;;;;;;;4781636;30;20076;-94
2023/04/21 21:32:08;;;;;;;7.55;5.78;;;;;;;;;;4780604;30;20501;-88
2023/04/21 21:34:34;;;;;;;6.65;5.97;;;;;;;;;;4780321;30;20055;-90
2023/04/21 21:37:00;;;;;;;7.68;6.22;;;;;;;;;;4782338;29;20151;-89
2023/04/21 21:39:26;;;;;;;6.95;5.97;;;;;;;;;;4781354;30;20046;-87
2023/04/21 21:41:52;;;;;;;10.27;5.75;;;;;;;;;;4780699;30;20134;-86
2023/04/21 21:44:20;;;;;;;7.50;6.32;;;;;;;;;;4780557;30;20055;-93
2023/04/21 21:46:46;;;;;;;10.95;6.65;;;;;;;;;;4777042;29;20055;-90
2023/04/21 21:49:12;;;;;;;9.68;6.40;;;;;;;;;;4799373;29;20062;-91
2023/04/21 21:51:38;;;;;;;6.40;5.80;;;;;;;;;;4799911;29;20043;-95
2023/04/21 21:54:05;;;;;;;7.47;6.72;;;;;;;;;;4799977;29;20047;-87
2023/04/21 21:56:31;;;;;;;13.77;6.82;;;;;;;;;;4783892;29;21486;-91
2023/04/21 21:58:58;;;;;;;9.30;6.15;;;;;;;;;;4797677;29;20135;-89
2023/04/21 22:01:24;;;;;;;8.70;6.75;;;;;;;;;;4799001;29;20043;-89
2023/04/21 22:03:50;;;;;;;7.82;6.60;;;;;;;;;;4784167;29;20504;-92
2023/04/21 22:06:16;;;;;;;7.85;6.40;;;;;;;;;;4785338;29;20113;-90
2023/04/21 22:08:55;;;;;;;7.97;6.88;;;;;;;;;;4806528;29;20078;-88
2023/04/21 22:11:22;;;;;;;7.95;6.78;;;;;;;;;;4785020;29;20046;-85
2023/04/21 22:13:48;;;;;;;7.68;6.05;;;;;;;;;;4782873;29;20473;-86
2023/04/21 22:16:15;;;;;;;8.80;6.43;;;;;;;;;;4782565;29;20436;-86
2023/04/21 22:18:42;;;;;;;9.15;7.40;;;;;;;;;;4781437;29;20046;-87
2023/04/21 22:21:08;;;;;;;10.02;8.25;;;;;;;;;;4783746;29;20088;-86
2023/04/21 22:23:35;;;;;;;11.55;8.60;;;;;;;;;;4784045;29;20051;-86
2023/04/21 22:26:01;;;;;;;11.93;8.48;;;;;;;;;;4781156;29;20042;-87
2023/04/21 22:28:30;;;;;;;11.30;9.35;;;;;;;;;;4795483;29;20054;-92
2023/04/21 22:30:56;;;;;;;15.48;9.35;;;;;;;;;;4799824;29;20054;-86
2023/04/21 22:33:23;;;;;;;13.48;9.65;;;;;;;;;;4798912;29;20051;-85
2023/04/21 22:35:49;;;;;;;10.98;9.38;;;;;;;;;;4796643;29;20082;-89
2023/04/21 22:38:15;;;;;;;12.07;9.63;;;;;;;;;;4798114;29;20047;-93
2023/04/21 22:40:41;;;;;;;21.25;9.90;;;;;;;;;;4797623;29;20043;-86
2023/04/21 22:43:07;;;;;;;10.05;9.00;;;;;;;;;;4795409;29;20107;-89
2023/04/21 22:45:34;;;;;;;12.68;9.93;;;;;;;;;;4797658;29;20046;-94
2023/04/21 22:48:00;;;;;;;13.60;9.88;;;;;;;;;;4799629;29;20066;-95
2023/04/21 22:50:26;;;;;;;14.70;9.68;;;;;;;;;;4818246;29;20042;-86
2023/04/21 22:52:52;;;;;;;17.52;10.30;;;;;;;;;;4788079;29;20511;-87
2023/04/21 22:55:18;;;;;;;11.35;9.98;;;;;;;;;;4818913;29;20449;-87
2023/04/21 22:57:44;;;;;;;15.73;10.45;;;;;;;;;;4804727;29;20046;-89
2023/04/21 23:00:10;;;;;;;14.07;10.15;;;;;;;;;;4822589;29;20054;-86
2023/04/21 23:02:36;;;;;;;12.48;9.20;;;;;;;;;;4803594;29;20046;-90
2023/04/21 23:05:02;;;;;;;12.23;10.05;;;;;;;;;;4789346;29;20473;-91
2023/04/21 23:07:29;;;;;;;12.93;10.73;;;;;;;;;;4806042;29;20306;-89
2023/04/21 23:09:55;;;;;;;12.90;10.18;;;;;;;;;;4798202;29;20119;-94
2023/04/21 23:12:21;;;;;;;15.43;10.98;;;;;;;;;;4797782;29;20102;-85
2023/04/21 23:14:47;;;;;;;15.13;9.60;;;;;;;;;;4803572;29;20030;-85
2023/04/21 23:17:13;;;;;;;11.43;9.32;;;;;;;;;;4817724;29;20054;-85
2023/04/21 23:19:39;;;;;;;10.32;7.00;;;;;;;;;;4804101;29;20055;-85
2023/04/21 23:22:06;;;;;;;9.25;6.97;;;;;;;;;;4820247;29;20030;-85
2023/04/21 23:24:45;;;;;;;7.57;6.82;;;;;;;;;;4835556;29;20350;-87
2023/04/21 23:27:26;;;;;;;7.70;6.90;;;;;;;;;;4812905;29;20062;-88
2023/04/21 23:29:52;;;;;;;8.85;6.88;;;;;;;;;;4815604;29;20059;-85
2023/04/21 23:32:21;;;;;;;8.10;7.20;;;;;;;;;;4814823;29;20031;-85
2023/04/21 23:34:48;;;;;;;11.82;6.40;;;;;;;;;;4802441;29;20113;-85
2023/04/21 23:37:26;;;;;;;7.65;6.75;;;;;;;;;;4819589;29;20039;-86
2023/04/21 23:39:52;;;;;;;10.05;6.78;;;;;;;;;;4820521;29;20039;-85
2023/04/21 23:42:22;;;;;;;9.70;6.63;;;;;;;;;;4822131;29;20062;-85
2023/04/21 23:44:57;;;;;;;8.07;6.32;;;;;;;;;;4857824;23;20059;-85
2023/04/21 23:47:24;;;;;;;7.03;6.28;;;;;;;;;;4883609;29;20059;-85
2023/04/21 23:49:50;;;;;;;6.68;6.05;;;;;;;;;;4851890;29;20021;-87
2023/04/21 23:52:16;;;;;;;7.75;6.57;;;;;;;;;;4833968;29;20461;-86
2023/04/21 23:54:42;;;;;;;9.55;5.57;;;;;;;;;;4844679;29;20534;-87
2023/04/21 23:57:08;;;;;;;8.13;6.57;;;;;;;;;;4859129;29;20059;-88
2023/04/21 23:59:34;;;;;;;8.60;6.03;;;;;;;;;;4860385;29;20498;-87
